Terminal Aerodrome Forecast
Issued by NWS

Home | Current Version | Previous Version | Text Only | Print | Product List | Glossary On
Versions: 1 2 3 4 5 6 7 8 9 10 11 12 13 14
910
FTUS42 TJSJ 101725 CCA
TAFJSJ
TAF COR
TJSJ 101725Z 1018/1118 10013KT P6SM SCT030
     FM102300 10007KT P6SM FEW030
     FM111300 09015KT P6SM FEW030=

USA.gov is the U.S. government's official web portal to all federal, state and local government web resources and services.